sensor_id;sensor_type;location;lat;lon;timestamp;P1;durP1;ratioP1;P2;durP2;ratioP2
11488;SDS011;5801;50.804;12.638;2022-11-28T00:01:50;4.47;;;2.80;;
11488;SDS011;5801;50.804;12.638;2022-11-28T00:04:15;3.83;;;2.33;;
11488;SDS011;5801;50.804;12.638;2022-11-28T00:06:43;5.30;;;2.97;;
11488;SDS011;5801;50.804;12.638;2022-11-28T00:09:10;4.43;;;2.20;;
11488;SDS011;5801;50.804;12.638;2022-11-28T00:11:40;10.07;;;2.75;;
11488;SDS011;5801;50.804;12.638;2022-11-28T00:14:07;6.93;;;3.05;;
11488;SDS011;5801;50.804;12.638;2022-11-28T00:16:34;3.20;;;2.78;;
11488;SDS011;5801;50.804;12.638;2022-11-28T00:19:00;8.32;;;2.90;;
11488;SDS011;5801;50.804;12.638;2022-11-28T00:21:26;4.70;;;2.13;;
11488;SDS011;5801;50.804;12.638;2022-11-28T00:23:52;3.78;;;2.60;;
11488;SDS011;5801;50.804;12.638;2022-11-28T00:26:23;4.32;;;2.38;;
11488;SDS011;5801;50.804;12.638;2022-11-28T00:28:51;4.35;;;2.58;;
11488;SDS011;5801;50.804;12.638;2022-11-28T00:31:18;11.00;;;3.03;;
11488;SDS011;5801;50.804;12.638;2022-11-28T00:33:46;3.75;;;2.17;;
11488;SDS011;5801;50.804;12.638;2022-11-28T00:36:12;3.85;;;2.60;;
11488;SDS011;5801;50.804;12.638;2022-11-28T00:38:38;4.18;;;2.53;;
11488;SDS011;5801;50.804;12.638;2022-11-28T00:41:05;3.08;;;2.60;;
11488;SDS011;5801;50.804;12.638;2022-11-28T00:43:35;4.78;;;2.90;;
11488;SDS011;5801;50.804;12.638;2022-11-28T00:46:01;3.95;;;2.40;;
11488;SDS011;5801;50.804;12.638;2022-11-28T00:48:28;4.60;;;2.20;;
11488;SDS011;5801;50.804;12.638;2022-11-28T00:50:54;6.20;;;2.05;;
11488;SDS011;5801;50.804;12.638;2022-11-28T00:53:28;4.00;;;2.05;;
11488;SDS011;5801;50.804;12.638;2022-11-28T00:55:54;4.72;;;2.55;;
11488;SDS011;5801;50.804;12.638;2022-11-28T00:58:20;3.58;;;2.17;;
11488;SDS011;5801;50.804;12.638;2022-11-28T01:00:46;2.75;;;1.98;;
11488;SDS011;5801;50.804;12.638;2022-11-28T01:03:12;2.90;;;1.90;;
11488;SDS011;5801;50.804;12.638;2022-11-28T01:05:39;5.15;;;2.40;;
11488;SDS011;5801;50.804;12.638;2022-11-28T01:08:05;4.28;;;2.28;;
11488;SDS011;5801;50.804;12.638;2022-11-28T01:10:31;1.63;;;1.48;;
11488;SDS011;5801;50.804;12.638;2022-11-28T01:12:57;3.50;;;2.03;;
11488;SDS011;5801;50.804;12.638;2022-11-28T01:15:23;2.08;;;1.77;;
11488;SDS011;5801;50.804;12.638;2022-11-28T01:17:48;3.22;;;1.90;;
11488;SDS011;5801;50.804;12.638;2022-11-28T01:20:14;3.75;;;2.10;;
11488;SDS011;5801;50.804;12.638;2022-11-28T01:22:40;2.92;;;1.95;;
11488;SDS011;5801;50.804;12.638;2022-11-28T01:25:06;2.13;;;1.85;;
11488;SDS011;5801;50.804;12.638;2022-11-28T01:27:32;3.17;;;2.03;;
11488;SDS011;5801;50.804;12.638;2022-11-28T01:29:57;2.25;;;2.03;;
11488;SDS011;5801;50.804;12.638;2022-11-28T01:32:23;3.90;;;2.72;;
11488;SDS011;5801;50.804;12.638;2022-11-28T01:34:49;3.15;;;1.45;;
11488;SDS011;5801;50.804;12.638;2022-11-28T01:37:15;1.77;;;1.55;;
11488;SDS011;5801;50.804;12.638;2022-11-28T01:39:40;1.95;;;1.75;;
11488;SDS011;5801;50.804;12.638;2022-11-28T01:42:06;3.25;;;1.95;;
11488;SDS011;5801;50.804;12.638;2022-11-28T01:46:57;2.33;;;2.13;;
11488;SDS011;5801;50.804;12.638;2022-11-28T01:49:30;5.28;;;2.90;;
11488;SDS011;5801;50.804;12.638;2022-11-28T01:52:10;3.10;;;2.10;;
11488;SDS011;5801;50.804;12.638;2022-11-28T01:54:39;3.50;;;1.90;;
11488;SDS011;5801;50.804;12.638;2022-11-28T01:57:12;3.08;;;1.67;;
11488;SDS011;5801;50.804;12.638;2022-11-28T01:59:43;2.35;;;2.10;;
11488;SDS011;5801;50.804;12.638;2022-11-28T02:02:17;2.40;;;1.85;;
11488;SDS011;5801;50.804;12.638;2022-11-28T02:04:49;5.82;;;3.35;;
11488;SDS011;5801;50.804;12.638;2022-11-28T02:07:14;6.53;;;3.55;;
11488;SDS011;5801;50.804;12.638;2022-11-28T02:09:40;3.90;;;2.58;;
11488;SDS011;5801;50.804;12.638;2022-11-28T02:12:21;3.40;;;2.05;;
11488;SDS011;5801;50.804;12.638;2022-11-28T02:23:16;3.58;;;2.55;;
11488;SDS011;5801;50.804;12.638;2022-11-28T02:25:55;5.47;;;2.75;;
11488;SDS011;5801;50.804;12.638;2022-11-28T02:34:34;3.15;;;2.85;;
11488;SDS011;5801;50.804;12.638;2022-11-28T02:37:07;6.38;;;2.55;;
11488;SDS011;5801;50.804;12.638;2022-11-28T02:44:55;3.70;;;2.55;;
11488;SDS011;5801;50.804;12.638;2022-11-28T02:47:37;6.32;;;3.13;;
11488;SDS011;5801;50.804;12.638;2022-11-28T02:50:10;3.75;;;2.55;;
11488;SDS011;5801;50.804;12.638;2022-11-28T02:52:49;4.30;;;2.25;;
11488;SDS011;5801;50.804;12.638;2022-11-28T02:55:17;5.75;;;2.95;;
11488;SDS011;5801;50.804;12.638;2022-11-28T02:57:48;3.53;;;2.35;;
11488;SDS011;5801;50.804;12.638;2022-11-28T03:05:37;5.20;;;3.33;;
11488;SDS011;5801;50.804;12.638;2022-11-28T03:08:16;4.35;;;3.20;;
11488;SDS011;5801;50.804;12.638;2022-11-28T03:13:36;2.88;;;2.30;;
11488;SDS011;5801;50.804;12.638;2022-11-28T03:24:05;3.55;;;2.85;;
11488;SDS011;5801;50.804;12.638;2022-11-28T03:27:39;3.92;;;2.85;;
11488;SDS011;5801;50.804;12.638;2022-11-28T03:30:05;2.60;;;2.33;;
11488;SDS011;5801;50.804;12.638;2022-11-28T03:32:37;3.65;;;3.13;;
11488;SDS011;5801;50.804;12.638;2022-11-28T03:35:05;3.30;;;2.25;;
11488;SDS011;5801;50.804;12.638;2022-11-28T03:37:36;3.25;;;2.25;;
11488;SDS011;5801;50.804;12.638;2022-11-28T03:40:09;2.85;;;2.53;;
11488;SDS011;5801;50.804;12.638;2022-11-28T03:42:57;2.83;;;1.83;;
11488;SDS011;5801;50.804;12.638;2022-11-28T03:45:35;3.08;;;2.20;;
11488;SDS011;5801;50.804;12.638;2022-11-28T03:48:05;3.08;;;2.25;;
11488;SDS011;5801;50.804;12.638;2022-11-28T03:50:38;2.35;;;1.60;;
11488;SDS011;5801;50.804;12.638;2022-11-28T03:53:08;3.85;;;2.88;;
11488;SDS011;5801;50.804;12.638;2022-11-28T03:55:42;2.58;;;1.77;;
11488;SDS011;5801;50.804;12.638;2022-11-28T03:58:26;2.15;;;1.40;;
11488;SDS011;5801;50.804;12.638;2022-11-28T04:01:12;2.72;;;2.15;;
11488;SDS011;5801;50.804;12.638;2022-11-28T04:03:45;2.47;;;1.92;;
11488;SDS011;5801;50.804;12.638;2022-11-28T04:09:09;1.85;;;1.60;;
11488;SDS011;5801;50.804;12.638;2022-11-28T04:11:44;1.60;;;1.50;;
11488;SDS011;5801;50.804;12.638;2022-11-28T04:14:18;2.50;;;1.85;;
11488;SDS011;5801;50.804;12.638;2022-11-28T04:16:51;2.78;;;2.22;;
11488;SDS011;5801;50.804;12.638;2022-11-28T04:19:27;5.07;;;1.67;;
11488;SDS011;5801;50.804;12.638;2022-11-28T04:22:01;2.05;;;1.45;;
11488;SDS011;5801;50.804;12.638;2022-11-28T04:24:32;2.83;;;1.35;;
11488;SDS011;5801;50.804;12.638;2022-11-28T04:27:03;2.30;;;1.80;;
11488;SDS011;5801;50.804;12.638;2022-11-28T04:29:33;1.73;;;1.58;;
11488;SDS011;5801;50.804;12.638;2022-11-28T04:32:02;4.05;;;1.63;;
11488;SDS011;5801;50.804;12.638;2022-11-28T04:34:31;2.00;;;1.25;;
11488;SDS011;5801;50.804;12.638;2022-11-28T04:36:58;2.95;;;1.77;;
11488;SDS011;5801;50.804;12.638;2022-11-28T04:39:26;2.42;;;1.58;;
11488;SDS011;5801;50.804;12.638;2022-11-28T04:41:54;5.00;;;1.60;;
11488;SDS011;5801;50.804;12.638;2022-11-28T04:46:52;5.25;;;2.13;;
11488;SDS011;5801;50.804;12.638;2022-11-28T04:49:20;2.03;;;1.92;;
11488;SDS011;5801;50.804;12.638;2022-11-28T04:51:56;3.97;;;1.50;;
11488;SDS011;5801;50.804;12.638;2022-11-28T04:57:20;1.48;;;1.08;;
11488;SDS011;5801;50.804;12.638;2022-11-28T04:59:52;1.77;;;1.45;;
11488;SDS011;5801;50.804;12.638;2022-11-28T05:02:19;2.50;;;1.60;;
11488;SDS011;5801;50.804;12.638;2022-11-28T05:04:46;2.30;;;1.70;;
11488;SDS011;5801;50.804;12.638;2022-11-28T05:07:12;1.50;;;1.38;;
11488;SDS011;5801;50.804;12.638;2022-11-28T05:09:38;1.38;;;1.27;;
11488;SDS011;5801;50.804;12.638;2022-11-28T05:12:04;1.33;;;1.10;;
11488;SDS011;5801;50.804;12.638;2022-11-28T05:14:30;2.08;;;1.67;;
11488;SDS011;5801;50.804;12.638;2022-11-28T05:16:56;1.58;;;1.45;;
11488;SDS011;5801;50.804;12.638;2022-11-28T05:19:22;3.00;;;1.52;;
11488;SDS011;5801;50.804;12.638;2022-11-28T05:21:48;1.33;;;1.15;;
11488;SDS011;5801;50.804;12.638;2022-11-28T05:24:16;1.77;;;1.40;;
11488;SDS011;5801;50.804;12.638;2022-11-28T05:26:42;2.15;;;1.63;;
11488;SDS011;5801;50.804;12.638;2022-11-28T05:29:08;1.67;;;1.17;;
11488;SDS011;5801;50.804;12.638;2022-11-28T05:31:34;1.25;;;1.15;;
11488;SDS011;5801;50.804;12.638;2022-11-28T05:34:01;1.55;;;1.20;;
11488;SDS011;5801;50.804;12.638;2022-11-28T05:36:27;4.10;;;1.70;;
11488;SDS011;5801;50.804;12.638;2022-11-28T05:38:52;1.30;;;1.20;;
11488;SDS011;5801;50.804;12.638;2022-11-28T05:41:22;2.10;;;1.27;;
11488;SDS011;5801;50.804;12.638;2022-11-28T05:43:54;2.92;;;1.45;;
11488;SDS011;5801;50.804;12.638;2022-11-28T05:46:21;1.55;;;1.10;;
11488;SDS011;5801;50.804;12.638;2022-11-28T05:48:46;1.98;;;1.35;;
11488;SDS011;5801;50.804;12.638;2022-11-28T05:51:12;1.30;;;1.20;;
11488;SDS011;5801;50.804;12.638;2022-11-28T05:53:38;2.92;;;1.67;;
11488;SDS011;5801;50.804;12.638;2022-11-28T05:56:05;3.65;;;1.83;;
11488;SDS011;5801;50.804;12.638;2022-11-28T05:58:34;1.63;;;1.15;;
11488;SDS011;5801;50.804;12.638;2022-11-28T06:03:35;1.60;;;1.45;;
11488;SDS011;5801;50.804;12.638;2022-11-28T06:06:01;2.15;;;1.90;;
11488;SDS011;5801;50.804;12.638;2022-11-28T06:08:27;2.28;;;1.52;;
11488;SDS011;5801;50.804;12.638;2022-11-28T06:10:56;1.77;;;1.40;;
11488;SDS011;5801;50.804;12.638;2022-11-28T06:13:23;2.25;;;1.48;;
11488;SDS011;5801;50.804;12.638;2022-11-28T06:15:49;5.03;;;1.55;;
11488;SDS011;5801;50.804;12.638;2022-11-28T06:18:14;3.22;;;1.60;;
11488;SDS011;5801;50.804;12.638;2022-11-28T06:20:40;2.30;;;1.67;;
11488;SDS011;5801;50.804;12.638;2022-11-28T06:23:06;2.55;;;1.55;;
11488;SDS011;5801;50.804;12.638;2022-11-28T06:25:32;5.18;;;3.13;;
11488;SDS011;5801;50.804;12.638;2022-11-28T06:27:57;7.57;;;3.00;;
11488;SDS011;5801;50.804;12.638;2022-11-28T06:30:23;2.67;;;1.42;;
11488;SDS011;5801;50.804;12.638;2022-11-28T06:32:49;4.65;;;1.83;;
11488;SDS011;5801;50.804;12.638;2022-11-28T06:35:15;3.70;;;2.92;;
11488;SDS011;5801;50.804;12.638;2022-11-28T06:37:41;6.55;;;2.75;;
11488;SDS011;5801;50.804;12.638;2022-11-28T06:40:07;5.47;;;1.92;;
11488;SDS011;5801;50.804;12.638;2022-11-28T06:42:34;3.65;;;1.73;;
11488;SDS011;5801;50.804;12.638;2022-11-28T06:45:00;1.77;;;1.60;;
11488;SDS011;5801;50.804;12.638;2022-11-28T06:47:26;1.95;;;1.45;;
11488;SDS011;5801;50.804;12.638;2022-11-28T06:49:52;1.65;;;1.40;;
11488;SDS011;5801;50.804;12.638;2022-11-28T06:52:18;1.77;;;1.63;;
11488;SDS011;5801;50.804;12.638;2022-11-28T06:54:43;2.63;;;1.48;;
11488;SDS011;5801;50.804;12.638;2022-11-28T06:57:09;1.90;;;1.40;;
11488;SDS011;5801;50.804;12.638;2022-11-28T06:59:36;1.30;;;1.20;;
11488;SDS011;5801;50.804;12.638;2022-11-28T07:02:02;2.35;;;1.83;;
11488;SDS011;5801;50.804;12.638;2022-11-28T07:04:27;3.05;;;1.88;;
11488;SDS011;5801;50.804;12.638;2022-11-28T07:06:53;4.65;;;1.90;;
11488;SDS011;5801;50.804;12.638;2022-11-28T07:09:19;5.53;;;1.95;;
11488;SDS011;5801;50.804;12.638;2022-11-28T07:11:45;3.30;;;2.08;;
11488;SDS011;5801;50.804;12.638;2022-11-28T07:14:11;2.83;;;1.80;;
11488;SDS011;5801;50.804;12.638;2022-11-28T07:16:37;2.78;;;2.08;;
11488;SDS011;5801;50.804;12.638;2022-11-28T07:19:03;6.43;;;2.33;;
11488;SDS011;5801;50.804;12.638;2022-11-28T07:21:29;2.42;;;2.22;;
11488;SDS011;5801;50.804;12.638;2022-11-28T07:23:56;3.08;;;2.10;;
11488;SDS011;5801;50.804;12.638;2022-11-28T07:26:23;4.60;;;2.80;;
11488;SDS011;5801;50.804;12.638;2022-11-28T07:28:49;3.95;;;3.03;;
11488;SDS011;5801;50.804;12.638;2022-11-28T07:31:16;3.10;;;2.10;;
11488;SDS011;5801;50.804;12.638;2022-11-28T07:33:44;3.05;;;2.30;;
11488;SDS011;5801;50.804;12.638;2022-11-28T07:36:12;3.83;;;2.38;;
11488;SDS011;5801;50.804;12.638;2022-11-28T07:38:39;2.83;;;2.03;;
11488;SDS011;5801;50.804;12.638;2022-11-28T07:41:06;3.38;;;2.13;;
11488;SDS011;5801;50.804;12.638;2022-11-28T07:43:37;3.38;;;2.03;;
11488;SDS011;5801;50.804;12.638;2022-11-28T07:46:04;3.85;;;2.05;;
11488;SDS011;5801;50.804;12.638;2022-11-28T07:48:31;3.13;;;1.75;;
11488;SDS011;5801;50.804;12.638;2022-11-28T07:50:57;4.25;;;2.33;;
11488;SDS011;5801;50.804;12.638;2022-11-28T07:53:23;2.80;;;2.15;;
11488;SDS011;5801;50.804;12.638;2022-11-28T07:55:49;3.53;;;2.20;;
11488;SDS011;5801;50.804;12.638;2022-11-28T07:58:15;2.95;;;2.38;;
11488;SDS011;5801;50.804;12.638;2022-11-28T08:00:41;3.30;;;2.35;;
11488;SDS011;5801;50.804;12.638;2022-11-28T08:03:07;4.22;;;2.50;;
11488;SDS011;5801;50.804;12.638;2022-11-28T08:05:32;6.22;;;2.83;;
11488;SDS011;5801;50.804;12.638;2022-11-28T08:07:59;6.15;;;2.78;;
11488;SDS011;5801;50.804;12.638;2022-11-28T08:10:24;3.75;;;2.30;;
11488;SDS011;5801;50.804;12.638;2022-11-28T08:12:50;4.85;;;2.70;;
11488;SDS011;5801;50.804;12.638;2022-11-28T08:15:16;4.00;;;2.10;;
11488;SDS011;5801;50.804;12.638;2022-11-28T08:17:42;3.28;;;2.20;;
11488;SDS011;5801;50.804;12.638;2022-11-28T08:20:08;4.88;;;2.25;;
11488;SDS011;5801;50.804;12.638;2022-11-28T08:22:34;5.53;;;2.92;;
11488;SDS011;5801;50.804;12.638;2022-11-28T08:25:00;7.00;;;2.45;;
11488;SDS011;5801;50.804;12.638;2022-11-28T08:27:26;7.10;;;2.60;;
11488;SDS011;5801;50.804;12.638;2022-11-28T08:29:52;2.83;;;2.28;;
11488;SDS011;5801;50.804;12.638;2022-11-28T08:32:17;5.18;;;3.17;;
11488;SDS011;5801;50.804;12.638;2022-11-28T08:34:44;4.57;;;2.47;;
11488;SDS011;5801;50.804;12.638;2022-11-28T08:37:10;5.97;;;3.00;;
11488;SDS011;5801;50.804;12.638;2022-11-28T08:39:36;5.47;;;3.30;;
11488;SDS011;5801;50.804;12.638;2022-11-28T08:42:02;3.83;;;2.45;;
11488;SDS011;5801;50.804;12.638;2022-11-28T08:44:27;5.47;;;3.13;;
11488;SDS011;5801;50.804;12.638;2022-11-28T08:46:53;5.68;;;2.42;;
11488;SDS011;5801;50.804;12.638;2022-11-28T08:49:19;4.25;;;2.67;;
11488;SDS011;5801;50.804;12.638;2022-11-28T08:51:44;4.20;;;2.72;;
11488;SDS011;5801;50.804;12.638;2022-11-28T08:54:10;5.38;;;2.35;;
11488;SDS011;5801;50.804;12.638;2022-11-28T08:56:36;4.30;;;2.63;;
11488;SDS011;5801;50.804;12.638;2022-11-28T08:59:02;2.97;;;2.40;;
11488;SDS011;5801;50.804;12.638;2022-11-28T09:01:28;7.00;;;2.88;;
11488;SDS011;5801;50.804;12.638;2022-11-28T09:03:54;4.07;;;2.60;;
11488;SDS011;5801;50.804;12.638;2022-11-28T09:06:20;4.05;;;2.67;;
11488;SDS011;5801;50.804;12.638;2022-11-28T09:08:47;6.30;;;3.25;;
11488;SDS011;5801;50.804;12.638;2022-11-28T09:11:15;6.43;;;3.35;;
11488;SDS011;5801;50.804;12.638;2022-11-28T09:13:43;7.85;;;3.03;;
11488;SDS011;5801;50.804;12.638;2022-11-28T09:16:09;3.95;;;2.60;;
11488;SDS011;5801;50.804;12.638;2022-11-28T09:18:35;10.07;;;3.47;;
11488;SDS011;5801;50.804;12.638;2022-11-28T09:21:01;2.92;;;2.60;;
11488;SDS011;5801;50.804;12.638;2022-11-28T09:23:29;5.47;;;3.30;;
11488;SDS011;5801;50.804;12.638;2022-11-28T09:25:55;5.00;;;3.30;;
11488;SDS011;5801;50.804;12.638;2022-11-28T09:28:21;5.10;;;3.42;;
11488;SDS011;5801;50.804;12.638;2022-11-28T09:30:47;5.80;;;2.97;;
11488;SDS011;5801;50.804;12.638;2022-11-28T09:33:13;5.82;;;3.15;;
11488;SDS011;5801;50.804;12.638;2022-11-28T09:35:39;4.80;;;2.88;;
11488;SDS011;5801;50.804;12.638;2022-11-28T09:38:05;4.78;;;2.75;;
11488;SDS011;5801;50.804;12.638;2022-11-28T09:42:58;4.93;;;3.13;;
11488;SDS011;5801;50.804;12.638;2022-11-28T09:45:26;6.97;;;3.03;;
11488;SDS011;5801;50.804;12.638;2022-11-28T09:48:06;3.67;;;2.55;;
11488;SDS011;5801;50.804;12.638;2022-11-28T09:50:55;6.22;;;2.78;;
11488;SDS011;5801;50.804;12.638;2022-11-28T09:53:43;5.78;;;2.88;;
11488;SDS011;5801;50.804;12.638;2022-11-28T09:56:14;6.93;;;3.13;;
11488;SDS011;5801;50.804;12.638;2022-11-28T09:58:55;3.88;;;2.80;;
11488;SDS011;5801;50.804;12.638;2022-11-28T10:01:30;3.55;;;2.53;;
11488;SDS011;5801;50.804;12.638;2022-11-28T10:04:22;6.22;;;3.10;;
11488;SDS011;5801;50.804;12.638;2022-11-28T10:07:05;6.05;;;3.22;;
11488;SDS011;5801;50.804;12.638;2022-11-28T10:12:15;5.60;;;3.70;;
11488;SDS011;5801;50.804;12.638;2022-11-28T10:20:31;8.25;;;3.25;;
11488;SDS011;5801;50.804;12.638;2022-11-28T10:23:03;3.95;;;2.55;;
11488;SDS011;5801;50.804;12.638;2022-11-28T10:25:33;5.35;;;3.40;;
11488;SDS011;5801;50.804;12.638;2022-11-28T10:28:03;5.90;;;3.03;;
11488;SDS011;5801;50.804;12.638;2022-11-28T10:30:31;4.35;;;2.80;;
11488;SDS011;5801;50.804;12.638;2022-11-28T10:35:49;6.03;;;2.47;;
11488;SDS011;5801;50.804;12.638;2022-11-28T10:38:25;8.82;;;2.65;;
11488;SDS011;5801;50.804;12.638;2022-11-28T10:49:17;4.90;;;2.63;;
11488;SDS011;5801;50.804;12.638;2022-11-28T10:51:53;4.75;;;2.45;;
11488;SDS011;5801;50.804;12.638;2022-11-28T10:54:45;5.18;;;2.78;;
11488;SDS011;5801;50.804;12.638;2022-11-28T10:57:23;6.25;;;2.75;;
11488;SDS011;5801;50.804;12.638;2022-11-28T11:00:12;7.78;;;3.78;;
11488;SDS011;5801;50.804;12.638;2022-11-28T11:02:43;3.97;;;2.70;;
11488;SDS011;5801;50.804;12.638;2022-11-28T11:05:15;8.13;;;3.22;;
11488;SDS011;5801;50.804;12.638;2022-11-28T11:07:56;5.75;;;2.45;;
11488;SDS011;5801;50.804;12.638;2022-11-28T11:10:30;5.50;;;3.63;;
11488;SDS011;5801;50.804;12.638;2022-11-28T11:13:21;11.95;;;4.05;;
11488;SDS011;5801;50.804;12.638;2022-11-28T11:16:09;7.63;;;4.50;;
11488;SDS011;5801;50.804;12.638;2022-11-28T11:21:08;7.63;;;3.97;;
11488;SDS011;5801;50.804;12.638;2022-11-28T11:23:39;7.22;;;3.75;;
11488;SDS011;5801;50.804;12.638;2022-11-28T11:26:06;9.40;;;4.40;;
11488;SDS011;5801;50.804;12.638;2022-11-28T11:28:38;11.30;;;5.05;;
11488;SDS011;5801;50.804;12.638;2022-11-28T11:31:17;6.20;;;4.07;;
11488;SDS011;5801;50.804;12.638;2022-11-28T11:34:14;4.93;;;3.38;;
11488;SDS011;5801;50.804;12.638;2022-11-28T11:36:41;6.78;;;4.35;;
11488;SDS011;5801;50.804;12.638;2022-11-28T11:42:14;8.10;;;4.55;;
11488;SDS011;5801;50.804;12.638;2022-11-28T11:44:31;6.93;;;4.35;;
11488;SDS011;5801;50.804;12.638;2022-11-28T11:47:02;9.27;;;4.35;;
11488;SDS011;5801;50.804;12.638;2022-11-28T11:49:33;7.47;;;4.30;;
11488;SDS011;5801;50.804;12.638;2022-11-28T11:52:00;6.38;;;4.13;;
11488;SDS011;5801;50.804;12.638;2022-11-28T11:54:30;7.55;;;3.83;;
11488;SDS011;5801;50.804;12.638;2022-11-28T11:56:56;7.30;;;4.57;;
11488;SDS011;5801;50.804;12.638;2022-11-28T11:59:28;5.47;;;3.80;;
11488;SDS011;5801;50.804;12.638;2022-11-28T12:02:02;8.32;;;4.45;;
11488;SDS011;5801;50.804;12.638;2022-11-28T12:04:37;8.90;;;3.70;;
11488;SDS011;5801;50.804;12.638;2022-11-28T12:07:11;6.00;;;4.00;;
11488;SDS011;5801;50.804;12.638;2022-11-28T12:10:19;4.53;;;3.13;;
11488;SDS011;5801;50.804;12.638;2022-11-28T12:12:47;6.40;;;3.75;;
11488;SDS011;5801;50.804;12.638;2022-11-28T12:15:22;9.90;;;4.70;;
11488;SDS011;5801;50.804;12.638;2022-11-28T12:17:58;6.22;;;4.00;;
11488;SDS011;5801;50.804;12.638;2022-11-28T12:20:48;15.13;;;5.18;;
11488;SDS011;5801;50.804;12.638;2022-11-28T12:26:27;8.27;;;4.05;;
11488;SDS011;5801;50.804;12.638;2022-11-28T12:48:22;10.93;;;4.82;;
11488;SDS011;5801;50.804;12.638;2022-11-28T12:51:06;12.57;;;4.53;;
11488;SDS011;5801;50.804;12.638;2022-11-28T12:54:06;8.93;;;4.72;;
11488;SDS011;5801;50.804;12.638;2022-11-28T13:07:41;6.07;;;3.60;;
11488;SDS011;5801;50.804;12.638;2022-11-28T13:18:24;5.97;;;3.33;;
11488;SDS011;5801;50.804;12.638;2022-11-28T13:26:46;4.30;;;2.92;;
11488;SDS011;5801;50.804;12.638;2022-11-28T13:29:34;8.10;;;3.33;;
11488;SDS011;5801;50.804;12.638;2022-11-28T13:34:59;4.65;;;3.30;;
11488;SDS011;5801;50.804;12.638;2022-11-28T13:40:18;5.22;;;2.90;;
11488;SDS011;5801;50.804;12.638;2022-11-28T13:45:24;5.10;;;3.10;;
11488;SDS011;5801;50.804;12.638;2022-11-28T13:47:54;5.72;;;3.08;;
11488;SDS011;5801;50.804;12.638;2022-11-28T13:53:00;3.67;;;2.88;;
11488;SDS011;5801;50.804;12.638;2022-11-28T14:06:22;4.25;;;2.67;;
11488;SDS011;5801;50.804;12.638;2022-11-28T14:20:20;5.35;;;3.22;;
11488;SDS011;5801;50.804;12.638;2022-11-28T14:25:27;4.43;;;3.30;;
11488;SDS011;5801;50.804;12.638;2022-11-28T14:28:00;5.47;;;3.20;;
11488;SDS011;5801;50.804;12.638;2022-11-28T14:30:32;9.50;;;4.45;;
11488;SDS011;5801;50.804;12.638;2022-11-28T14:33:02;7.60;;;4.05;;
11488;SDS011;5801;50.804;12.638;2022-11-28T14:41:10;10.30;;;4.25;;
11488;SDS011;5801;50.804;12.638;2022-11-28T14:43:41;5.82;;;3.28;;
11488;SDS011;5801;50.804;12.638;2022-11-28T14:48:39;4.57;;;3.03;;
11488;SDS011;5801;50.804;12.638;2022-11-28T14:54:27;4.35;;;3.00;;
11488;SDS011;5801;50.804;12.638;2022-11-28T14:56:55;12.15;;;3.35;;
11488;SDS011;5801;50.804;12.638;2022-11-28T14:59:35;5.25;;;3.38;;
11488;SDS011;5801;50.804;12.638;2022-11-28T15:10:02;6.72;;;3.97;;
11488;SDS011;5801;50.804;12.638;2022-11-28T15:15:12;7.75;;;3.20;;
11488;SDS011;5801;50.804;12.638;2022-11-28T15:17:38;12.02;;;6.05;;
11488;SDS011;5801;50.804;12.638;2022-11-28T15:20:07;6.85;;;4.50;;
11488;SDS011;5801;50.804;12.638;2022-11-28T15:22:41;8.25;;;4.30;;
11488;SDS011;5801;50.804;12.638;2022-11-28T15:25:20;8.38;;;5.03;;
11488;SDS011;5801;50.804;12.638;2022-11-28T15:27:46;5.28;;;3.80;;
11488;SDS011;5801;50.804;12.638;2022-11-28T15:30:19;7.40;;;4.32;;
11488;SDS011;5801;50.804;12.638;2022-11-28T15:32:50;9.77;;;4.30;;
11488;SDS011;5801;50.804;12.638;2022-11-28T15:35:23;5.65;;;4.38;;
11488;SDS011;5801;50.804;12.638;2022-11-28T15:37:50;5.78;;;3.38;;
11488;SDS011;5801;50.804;12.638;2022-11-28T15:40:26;6.13;;;3.63;;
11488;SDS011;5801;50.804;12.638;2022-11-28T15:42:53;4.28;;;3.10;;
11488;SDS011;5801;50.804;12.638;2022-11-28T15:47:53;7.35;;;3.03;;
11488;SDS011;5801;50.804;12.638;2022-11-28T15:50:29;5.00;;;3.28;;
11488;SDS011;5801;50.804;12.638;2022-11-28T15:52:57;6.38;;;3.95;;
11488;SDS011;5801;50.804;12.638;2022-11-28T15:55:28;8.73;;;3.67;;
11488;SDS011;5801;50.804;12.638;2022-11-28T15:58:38;4.10;;;3.08;;
11488;SDS011;5801;50.804;12.638;2022-11-28T16:00:47;5.30;;;3.42;;
11488;SDS011;5801;50.804;12.638;2022-11-28T16:03:21;7.15;;;4.47;;
11488;SDS011;5801;50.804;12.638;2022-11-28T16:05:50;5.40;;;3.40;;
11488;SDS011;5801;50.804;12.638;2022-11-28T16:08:28;7.50;;;4.55;;
11488;SDS011;5801;50.804;12.638;2022-11-28T16:10:57;7.53;;;4.22;;
11488;SDS011;5801;50.804;12.638;2022-11-28T16:13:25;6.22;;;3.88;;
11488;SDS011;5801;50.804;12.638;2022-11-28T16:15:52;5.60;;;3.42;;
11488;SDS011;5801;50.804;12.638;2022-11-28T16:18:20;6.13;;;4.10;;
11488;SDS011;5801;50.804;12.638;2022-11-28T16:20:46;7.22;;;4.00;;
11488;SDS011;5801;50.804;12.638;2022-11-28T16:23:17;8.00;;;4.45;;
11488;SDS011;5801;50.804;12.638;2022-11-28T16:25:45;8.75;;;3.90;;
11488;SDS011;5801;50.804;12.638;2022-11-28T16:28:29;6.75;;;3.35;;
11488;SDS011;5801;50.804;12.638;2022-11-28T16:30:57;4.60;;;3.58;;
11488;SDS011;5801;50.804;12.638;2022-11-28T16:38:39;6.75;;;3.88;;
11488;SDS011;5801;50.804;12.638;2022-11-28T16:41:05;7.55;;;4.20;;
11488;SDS011;5801;50.804;12.638;2022-11-28T16:43:35;8.32;;;4.13;;
11488;SDS011;5801;50.804;12.638;2022-11-28T16:46:03;8.15;;;4.07;;
11488;SDS011;5801;50.804;12.638;2022-11-28T16:48:32;7.15;;;4.28;;
11488;SDS011;5801;50.804;12.638;2022-11-28T16:56:22;8.68;;;4.65;;
11488;SDS011;5801;50.804;12.638;2022-11-28T17:01:32;7.80;;;4.05;;
11488;SDS011;5801;50.804;12.638;2022-11-28T17:03:59;7.63;;;4.05;;
11488;SDS011;5801;50.804;12.638;2022-11-28T17:06:31;6.45;;;3.67;;
11488;SDS011;5801;50.804;12.638;2022-11-28T17:09:01;8.43;;;4.57;;
11488;SDS011;5801;50.804;12.638;2022-11-28T17:11:32;7.65;;;4.30;;
11488;SDS011;5801;50.804;12.638;2022-11-28T17:14:00;7.38;;;4.10;;
11488;SDS011;5801;50.804;12.638;2022-11-28T17:16:27;6.90;;;4.45;;
11488;SDS011;5801;50.804;12.638;2022-11-28T17:18:53;6.93;;;3.97;;
11488;SDS011;5801;50.804;12.638;2022-11-28T17:21:23;9.02;;;5.32;;
11488;SDS011;5801;50.804;12.638;2022-11-28T17:23:57;9.02;;;4.68;;
11488;SDS011;5801;50.804;12.638;2022-11-28T17:26:23;8.35;;;4.32;;
11488;SDS011;5801;50.804;12.638;2022-11-28T17:28:49;8.32;;;4.20;;
11488;SDS011;5801;50.804;12.638;2022-11-28T17:31:15;5.70;;;3.75;;
11488;SDS011;5801;50.804;12.638;2022-11-28T17:33:41;6.50;;;4.18;;
11488;SDS011;5801;50.804;12.638;2022-11-28T17:36:08;9.30;;;3.92;;
11488;SDS011;5801;50.804;12.638;2022-11-28T17:38:35;6.25;;;3.80;;
11488;SDS011;5801;50.804;12.638;2022-11-28T17:41:02;10.25;;;4.93;;
11488;SDS011;5801;50.804;12.638;2022-11-28T17:43:28;6.20;;;3.63;;
11488;SDS011;5801;50.804;12.638;2022-11-28T17:45:53;7.07;;;4.45;;
11488;SDS011;5801;50.804;12.638;2022-11-28T17:48:20;6.32;;;4.07;;
11488;SDS011;5801;50.804;12.638;2022-11-28T17:50:47;7.60;;;4.07;;
11488;SDS011;5801;50.804;12.638;2022-11-28T17:53:17;9.95;;;5.05;;
11488;SDS011;5801;50.804;12.638;2022-11-28T17:55:45;6.22;;;4.05;;
11488;SDS011;5801;50.804;12.638;2022-11-28T17:58:19;9.10;;;4.15;;
11488;SDS011;5801;50.804;12.638;2022-11-28T18:00:46;9.13;;;4.82;;
11488;SDS011;5801;50.804;12.638;2022-11-28T18:03:12;4.88;;;3.72;;
11488;SDS011;5801;50.804;12.638;2022-11-28T18:05:42;7.90;;;4.63;;
11488;SDS011;5801;50.804;12.638;2022-11-28T18:08:10;7.55;;;3.70;;
11488;SDS011;5801;50.804;12.638;2022-11-28T18:10:36;7.63;;;4.25;;
11488;SDS011;5801;50.804;12.638;2022-11-28T18:13:03;5.70;;;4.35;;
11488;SDS011;5801;50.804;12.638;2022-11-28T18:15:29;5.25;;;3.95;;
11488;SDS011;5801;50.804;12.638;2022-11-28T18:17:56;8.27;;;4.15;;
11488;SDS011;5801;50.804;12.638;2022-11-28T18:20:22;6.70;;;4.32;;
11488;SDS011;5801;50.804;12.638;2022-11-28T18:22:52;7.78;;;4.50;;